createdAt,value
2018-01-21T00:02:24.216Z,26.47
2018-01-21T00:04:52.470Z,25.60
2018-01-21T00:07:20.716Z,26.93
2018-01-21T00:09:49.010Z,25.30
2018-01-21T00:12:18.309Z,25.43
2018-01-21T00:14:46.517Z,28.00
2018-01-21T00:17:14.892Z,23.60
2018-01-21T00:19:43.132Z,26.17
2018-01-21T00:22:24.839Z,25.47
2018-01-21T00:24:53.848Z,28.40
2018-01-21T00:27:22.103Z,24.43
2018-01-21T00:29:51.150Z,25.00
2018-01-21T00:32:19.439Z,27.70
2018-01-21T00:34:48.701Z,24.83
2018-01-21T00:37:16.974Z,25.20
2018-01-21T00:39:45.300Z,25.77
2018-01-21T00:42:13.607Z,24.70
2018-01-21T00:44:41.855Z,23.53
2018-01-21T00:47:10.099Z,26.30
2018-01-21T00:49:38.578Z,29.97
2018-01-21T00:52:07.029Z,28.10
2018-01-21T00:54:36.028Z,26.97
2018-01-21T00:57:05.272Z,27.03
2018-01-21T00:59:33.522Z,27.30
2018-01-21T01:02:01.765Z,27.20
2018-01-21T01:04:31.104Z,25.33
2018-01-21T01:06:59.349Z,26.23
2018-01-21T01:09:28.369Z,30.53
2018-01-21T01:11:56.765Z,29.77
2018-01-21T01:14:25.016Z,30.67
2018-01-21T01:16:53.473Z,28.93
2018-01-21T01:19:22.616Z,32.37
2018-01-21T01:21:50.860Z,37.67
2018-01-21T01:24:19.105Z,32.37
2018-01-21T01:26:47.869Z,31.30
2018-01-21T01:29:16.080Z,34.90
2018-01-21T01:31:45.127Z,37.00
2018-01-21T01:34:13.511Z,32.73
2018-01-21T01:36:43.937Z,32.60
2018-01-21T01:39:12.178Z,29.50
2018-01-21T01:41:40.587Z,27.97
2018-01-21T01:44:08.829Z,29.73
2018-01-21T01:46:37.066Z,24.57
2018-01-21T01:49:05.529Z,31.73
2018-01-21T01:51:33.772Z,24.33
2018-01-21T01:54:02.027Z,28.40
2018-01-21T01:56:31.273Z,27.20
2018-01-21T01:58:59.504Z,25.73
2018-01-21T02:01:27.761Z,23.73
2018-01-21T02:03:56.195Z,26.07
2018-01-21T02:06:26.156Z,32.70
2018-01-21T02:08:54.584Z,29.90
2018-01-21T02:11:22.849Z,26.90
2018-01-21T02:13:51.473Z,28.33
2018-01-21T02:16:20.029Z,26.00
2018-01-21T02:18:48.293Z,23.83
2018-01-21T02:21:17.269Z,27.93
2018-01-21T02:23:45.661Z,25.67
2018-01-21T02:26:13.919Z,26.33
2018-01-21T02:28:42.928Z,23.20
2018-01-21T02:31:11.334Z,23.40
2018-01-21T02:33:39.572Z,21.93
2018-01-21T02:36:08.956Z,20.90
2018-01-21T02:38:37.163Z,20.47
2018-01-21T02:41:05.406Z,18.13
2018-01-21T02:43:33.753Z,20.77
2018-01-21T02:46:02.021Z,20.83
2018-01-21T02:48:30.362Z,18.60
2018-01-21T02:50:58.977Z,14.80
2018-01-21T02:53:27.504Z,14.67
2018-01-21T02:55:55.708Z,14.73
2018-01-21T02:58:23.954Z,15.60
2018-01-21T03:00:52.409Z,22.47
2018-01-21T03:03:20.645Z,14.30
2018-01-21T03:05:48.909Z,15.83
2018-01-21T03:08:17.329Z,15.70
2018-01-21T03:10:45.564Z,13.70
2018-01-21T03:13:14.108Z,13.67
2018-01-21T03:15:42.343Z,11.80
2018-01-21T03:18:10.612Z,11.73
2018-01-21T03:20:39.116Z,16.43
2018-01-21T03:23:08.253Z,16.10
2018-01-21T03:25:36.556Z,16.70
2018-01-21T03:28:04.808Z,14.40
2018-01-21T03:30:34.154Z,16.93
2018-01-21T03:33:02.393Z,19.03
2018-01-21T03:35:30.672Z,16.20
2018-01-21T03:37:59.098Z,13.03
2018-01-21T03:40:27.587Z,15.13
2018-01-21T03:42:55.902Z,13.87
2018-01-21T03:45:24.531Z,10.33
2018-01-21T03:47:53.583Z,15.27
2018-01-21T03:50:21.817Z,14.93
2018-01-21T03:52:50.197Z,10.50
2018-01-21T03:55:18.475Z,12.50
2018-01-21T03:57:46.796Z,11.40
2018-01-21T04:00:15.222Z,14.80
2018-01-21T04:02:43.460Z,14.80
2018-01-21T04:05:12.462Z,11.13
2018-01-21T04:07:40.864Z,10.10
2018-01-21T04:10:09.325Z,12.40
2018-01-21T04:12:37.580Z,14.23
2018-01-21T04:15:06.721Z,10.90
2018-01-21T04:17:34.969Z,13.77
2018-01-21T04:20:03.232Z,11.03
2018-01-21T04:22:32.584Z,14.33
2018-01-21T04:25:00.812Z,15.97
2018-01-21T04:27:29.835Z,15.47
2018-01-21T04:29:58.209Z,16.30
2018-01-21T04:32:26.451Z,18.63
2018-01-21T04:34:55.601Z,13.27
2018-01-21T04:37:23.829Z,15.63
2018-01-21T04:39:52.838Z,14.37
2018-01-21T04:42:21.236Z,17.70
2018-01-21T04:44:49.500Z,11.93
2018-01-21T04:47:17.790Z,16.53
2018-01-21T04:49:46.531Z,14.67
2018-01-21T04:52:14.911Z,12.53
2018-01-21T04:54:43.454Z,11.00
2018-01-21T04:57:11.685Z,12.60
2018-01-21T04:59:40.694Z,14.40
2018-01-21T05:02:10.008Z,12.63
2018-01-21T05:04:38.330Z,15.87
2018-01-21T05:07:08.167Z,15.27
2018-01-21T05:09:36.585Z,12.03
2018-01-21T05:12:04.946Z,13.33
2018-01-21T05:14:33.185Z,12.53
2018-01-21T05:17:02.307Z,12.13
2018-01-21T05:19:30.536Z,11.00
2018-01-21T05:21:58.780Z,11.10
2018-01-21T05:24:27.260Z,11.67
2018-01-21T05:26:55.549Z,13.23
2018-01-21T05:29:23.805Z,12.30
2018-01-21T05:31:52.549Z,13.37
2018-01-21T05:34:20.757Z,13.17
2018-01-21T05:36:49.227Z,13.93
2018-01-21T05:39:18.557Z,15.47
2018-01-21T05:41:46.805Z,17.37
2018-01-21T05:44:15.807Z,14.27
2018-01-21T05:46:44.226Z,14.43
2018-01-21T05:49:12.462Z,15.37
2018-01-21T05:51:40.724Z,12.90
2018-01-21T05:54:09.248Z,13.50
2018-01-21T05:56:37.493Z,15.33
2018-01-21T05:59:05.856Z,11.40
2018-01-21T06:01:34.260Z,11.73
2018-01-21T06:04:03.229Z,15.87
2018-01-21T06:06:31.696Z,11.83
2018-01-21T06:09:00.697Z,13.97
2018-01-21T06:11:29.846Z,11.87
2018-01-21T06:13:58.070Z,11.73
2018-01-21T06:16:27.217Z,12.80
2018-01-21T06:18:55.465Z,14.30
2018-01-21T06:21:23.713Z,11.07
2018-01-21T06:23:52.164Z,14.30
2018-01-21T06:26:20.415Z,11.90
2018-01-21T06:28:48.645Z,13.50
2018-01-21T06:31:17.885Z,14.70
2018-01-21T06:33:46.125Z,10.20
2018-01-21T06:36:15.118Z,9.97
2018-01-21T06:38:43.538Z,11.60
2018-01-21T06:41:11.764Z,14.67
2018-01-21T06:43:40.039Z,10.70
2018-01-21T06:46:08.365Z,14.80
2018-01-21T06:48:36.840Z,16.53
2018-01-21T06:51:05.078Z,9.80
2018-01-21T06:53:33.307Z,8.03
2018-01-21T06:56:01.665Z,7.80
2018-01-21T06:58:30.167Z,10.10
2018-01-21T07:00:59.676Z,12.17
2018-01-21T07:03:27.928Z,8.97
2018-01-21T07:05:56.425Z,8.97
2018-01-21T07:08:24.672Z,13.50
2018-01-21T07:10:52.905Z,14.50
2018-01-21T07:13:21.424Z,9.97
2018-01-21T07:15:50.423Z,12.80
2018-01-21T07:18:18.782Z,9.83
2018-01-21T07:20:47.304Z,15.00
2018-01-21T07:23:15.554Z,18.43
2018-01-21T07:25:44.553Z,13.00
2018-01-21T07:28:13.866Z,11.93
2018-01-21T07:30:42.112Z,12.33
2018-01-21T07:33:10.706Z,11.73
2018-01-21T07:35:39.845Z,11.80
2018-01-21T07:38:08.083Z,15.27
2018-01-21T07:40:37.236Z,11.27
2018-01-21T07:43:05.481Z,13.17
2018-01-21T07:45:33.904Z,10.57
2018-01-21T07:48:02.130Z,15.43
2018-01-21T07:50:30.566Z,13.00
2018-01-21T07:52:58.957Z,13.17
2018-01-21T07:55:28.289Z,13.20
2018-01-21T07:57:56.542Z,13.60
2018-01-21T08:00:24.960Z,13.40
2018-01-21T08:02:53.381Z,12.53
2018-01-21T08:05:21.589Z,12.07
2018-01-21T08:07:50.092Z,11.40
2018-01-21T08:10:18.341Z,21.53
2018-01-21T08:12:46.616Z,14.27
2018-01-21T08:15:15.650Z,14.67
2018-01-21T08:17:43.888Z,13.80
2018-01-21T08:20:12.908Z,18.03
2018-01-21T08:22:41.172Z,12.67
2018-01-21T08:25:09.425Z,12.67
2018-01-21T08:27:38.460Z,19.40
2018-01-21T08:30:07.497Z,14.87
2018-01-21T08:32:36.545Z,16.93
2018-01-21T08:35:10.457Z,13.00
2018-01-21T08:37:44.445Z,11.53
2018-01-21T08:40:19.099Z,12.53
2018-01-21T08:42:47.368Z,13.20
2018-01-21T08:45:15.697Z,10.70
2018-01-21T08:47:43.936Z,10.10
2018-01-21T08:50:12.177Z,11.43
2018-01-21T08:52:40.449Z,15.70
2018-01-21T08:55:08.719Z,11.97
2018-01-21T08:57:36.961Z,19.30
2018-01-21T09:00:05.228Z,22.13
2018-01-21T09:02:33.501Z,14.60
2018-01-21T09:05:01.790Z,14.57
2018-01-21T09:07:31.696Z,14.13
2018-01-21T09:09:59.965Z,11.80
2018-01-21T09:12:28.202Z,11.57
2018-01-21T09:14:56.458Z,10.23
2018-01-21T09:17:25.532Z,13.00
2018-01-21T09:19:53.726Z,12.60
2018-01-21T09:22:22.015Z,18.10
2018-01-21T09:24:50.373Z,17.70
2018-01-21T09:27:19.358Z,11.70
2018-01-21T09:29:47.617Z,14.80
2018-01-21T09:32:15.912Z,11.80
2018-01-21T09:34:45.046Z,15.40
2018-01-21T09:37:13.317Z,14.67
2018-01-21T09:39:41.549Z,11.93
2018-01-21T09:42:09.831Z,17.77
2018-01-21T09:44:38.110Z,9.67
2018-01-21T09:47:06.432Z,10.40
2018-01-21T09:49:34.677Z,12.60
2018-01-21T09:52:03.107Z,16.60
2018-01-21T09:54:31.343Z,13.30
2018-01-21T09:57:00.360Z,10.93
2018-01-21T09:59:28.611Z,11.97
2018-01-21T10:01:57.040Z,10.30
2018-01-21T10:04:26.002Z,13.20
2018-01-21T10:06:54.234Z,9.00
2018-01-21T10:09:22.493Z,10.03
2018-01-21T10:11:50.726Z,9.50
2018-01-21T10:14:18.977Z,11.60
2018-01-21T10:16:47.990Z,9.03
2018-01-21T10:19:16.443Z,7.70
2018-01-21T10:21:46.205Z,10.43
2018-01-21T10:24:14.475Z,6.30
2018-01-21T10:26:42.884Z,10.00
2018-01-21T10:29:11.180Z,8.17
2018-01-21T10:31:40.182Z,6.40
2018-01-21T10:34:09.196Z,8.33
2018-01-21T10:36:37.447Z,15.80
2018-01-21T10:39:05.680Z,10.93
2018-01-21T10:41:33.945Z,10.90
2018-01-21T10:44:02.179Z,33.73
2018-01-21T10:46:31.347Z,9.53
2018-01-21T10:49:00.371Z,9.70
2018-01-21T10:51:29.412Z,10.23
2018-01-21T10:53:57.668Z,9.97
2018-01-21T10:56:25.901Z,8.03
2018-01-21T10:58:54.146Z,9.90
2018-01-21T11:01:22.395Z,5.57
2018-01-21T11:03:50.734Z,12.03
2018-01-21T11:06:18.947Z,7.97
2018-01-21T11:08:47.225Z,10.67
2018-01-21T11:11:15.453Z,7.30
2018-01-21T11:13:43.721Z,10.57
2018-01-21T11:16:19.386Z,8.07
2018-01-21T11:18:49.192Z,7.33
2018-01-21T11:21:18.446Z,11.47
2018-01-21T11:23:46.980Z,9.00
2018-01-21T11:26:15.678Z,11.47
2018-01-21T11:28:43.905Z,13.67
2018-01-21T11:31:12.173Z,7.73
2018-01-21T11:33:40.408Z,8.20
2018-01-21T11:36:08.884Z,9.63
2018-01-21T11:38:37.319Z,7.07
2018-01-21T11:41:06.660Z,8.80
2018-01-21T11:43:36.727Z,8.63
2018-01-21T11:46:04.943Z,8.23
2018-01-21T11:48:33.213Z,8.03
2018-01-21T11:51:01.437Z,8.60
2018-01-21T11:53:29.681Z,8.37
2018-01-21T11:55:57.943Z,7.37
2018-01-21T11:58:26.205Z,12.80
2018-01-21T12:00:54.451Z,6.70
2018-01-21T12:03:22.696Z,9.07
2018-01-21T12:05:51.711Z,8.97
2018-01-21T12:08:19.962Z,11.80
2018-01-21T12:10:48.278Z,9.10
2018-01-21T12:13:16.513Z,6.93
2018-01-21T12:15:45.607Z,6.97
2018-01-21T12:18:13.874Z,16.57
2018-01-21T12:20:42.318Z,13.50
2018-01-21T12:23:10.568Z,12.90
2018-01-21T12:25:38.857Z,7.50
2018-01-21T12:28:07.114Z,19.90
2018-01-21T12:30:35.463Z,11.30
2018-01-21T12:33:03.668Z,15.33
2018-01-21T12:35:32.090Z,12.07
2018-01-21T12:38:00.360Z,10.00
2018-01-21T12:40:28.727Z,9.47
2018-01-21T12:42:57.181Z,11.93
2018-01-21T12:45:26.169Z,9.53
2018-01-21T12:47:54.417Z,8.63
2018-01-21T12:50:24.288Z,10.00
2018-01-21T12:52:52.522Z,11.47
2018-01-21T12:55:21.524Z,9.63
2018-01-21T12:57:50.189Z,8.47
2018-01-21T13:00:19.281Z,6.47
2018-01-21T13:02:47.476Z,7.43
2018-01-21T13:05:16.520Z,4.13
2018-01-21T13:07:44.784Z,12.20
2018-01-21T13:10:13.075Z,5.70
2018-01-21T13:12:41.293Z,3.60
2018-01-21T13:15:09.560Z,1.40
2018-01-21T13:17:37.890Z,5.77
2018-01-21T13:20:06.133Z,1.87
2018-01-21T13:22:34.409Z,1.83
2018-01-21T13:25:02.673Z,3.57
2018-01-21T13:27:31.718Z,1.73
2018-01-21T13:29:59.918Z,1.57
2018-01-21T13:32:29.526Z,1.60
2018-01-21T13:34:57.749Z,6.10
2018-01-21T13:37:26.010Z,4.30
2018-01-21T13:39:55.152Z,3.07
2018-01-21T13:42:23.665Z,2.20
2018-01-21T13:44:51.861Z,4.57
2018-01-21T13:47:21.029Z,4.23
2018-01-21T13:49:49.287Z,3.27
2018-01-21T13:52:17.582Z,4.23
2018-01-21T13:54:46.449Z,4.30
2018-01-21T13:57:14.702Z,3.47
2018-01-21T13:59:42.949Z,5.40
2018-01-21T14:02:11.977Z,31.30
2018-01-21T14:04:40.230Z,35.87
2018-01-21T14:07:08.585Z,8.77
2018-01-21T14:09:36.861Z,13.47
2018-01-21T14:12:05.102Z,6.90
2018-01-21T14:14:33.363Z,7.67
2018-01-21T14:17:01.597Z,4.47
2018-01-21T14:19:29.820Z,4.53
2018-01-21T14:21:58.901Z,13.37
2018-01-21T14:24:27.161Z,7.40
2018-01-21T14:26:55.682Z,4.00
2018-01-21T14:29:23.922Z,4.63
2018-01-21T14:31:52.214Z,2.60
2018-01-21T14:34:20.540Z,3.27
2018-01-21T14:36:48.975Z,5.73
2018-01-21T14:39:17.205Z,11.00
2018-01-21T14:41:45.733Z,10.70
2018-01-21T14:44:13.981Z,20.50
2018-01-21T14:46:42.217Z,7.87
2018-01-21T14:49:10.574Z,11.33
2018-01-21T14:51:38.856Z,6.20
2018-01-21T14:54:07.113Z,6.80
2018-01-21T14:56:35.373Z,3.67
2018-01-21T14:59:04.257Z,17.60
2018-01-21T15:01:32.499Z,11.40
2018-01-21T15:04:01.502Z,9.57
2018-01-21T15:06:29.775Z,9.60
2018-01-21T15:08:58.005Z,9.00
2018-01-21T15:11:26.267Z,5.00
2018-01-21T15:13:54.500Z,5.70
2018-01-21T15:16:22.733Z,6.17
2018-01-21T15:18:51.004Z,3.30
2018-01-21T15:21:20.285Z,4.03
2018-01-21T15:23:48.523Z,3.30
2018-01-21T15:26:16.837Z,9.10
2018-01-21T15:28:45.122Z,3.57
2018-01-21T15:31:13.360Z,3.20
2018-01-21T15:33:41.614Z,4.67
2018-01-21T15:36:09.854Z,2.50
2018-01-21T15:38:38.110Z,14.57
2018-01-21T15:41:07.104Z,7.60
2018-01-21T15:43:35.369Z,8.13
2018-01-21T15:46:03.625Z,3.10
2018-01-21T15:48:31.908Z,12.77
2018-01-21T15:51:00.919Z,13.60
2018-01-21T15:53:29.938Z,4.90
2018-01-21T15:55:58.176Z,7.50
2018-01-21T16:01:00.875Z,6.13
2018-01-21T16:03:29.145Z,3.10
2018-01-21T16:05:57.401Z,4.40
2018-01-21T16:08:25.661Z,4.13
2018-01-21T16:10:53.881Z,9.47
2018-01-21T16:13:22.911Z,5.93
2018-01-21T16:15:51.152Z,5.83
2018-01-21T16:18:19.516Z,7.87
2018-01-21T16:20:47.885Z,6.00
2018-01-21T16:23:16.168Z,4.93
2018-01-21T16:25:44.399Z,9.53
2018-01-21T16:28:12.670Z,9.37
2018-01-21T16:30:41.148Z,9.10
2018-01-21T16:33:09.389Z,6.77
2018-01-21T16:35:37.652Z,9.80
2018-01-21T16:38:17.728Z,5.43
2018-01-21T16:40:46.232Z,11.43
2018-01-21T16:43:14.465Z,4.37
2018-01-21T16:45:42.741Z,9.17
2018-01-21T16:48:11.897Z,9.63
2018-01-21T16:50:40.163Z,10.97
2018-01-21T16:53:08.407Z,12.10
2018-01-21T16:55:37.524Z,16.43
2018-01-21T16:58:05.821Z,10.37
2018-01-21T17:00:34.061Z,12.07
2018-01-21T17:03:02.329Z,8.63
2018-01-21T17:05:31.327Z,9.30
2018-01-21T17:07:59.736Z,7.97
2018-01-21T17:10:28.168Z,6.80
2018-01-21T17:12:56.449Z,6.57
2018-01-21T17:15:24.696Z,9.57
2018-01-21T17:17:52.944Z,13.10
2018-01-21T17:20:21.178Z,8.07
2018-01-21T17:22:50.246Z,6.60
2018-01-21T17:25:18.464Z,6.80
2018-01-21T17:27:46.759Z,11.30
2018-01-21T17:30:15.148Z,8.83
2018-01-21T17:32:44.324Z,5.60
2018-01-21T17:35:12.545Z,8.43
2018-01-21T17:37:40.797Z,6.77
2018-01-21T17:40:09.073Z,6.40
2018-01-21T17:42:37.518Z,6.20
2018-01-21T17:45:06.523Z,6.30
2018-01-21T17:47:34.765Z,10.30
2018-01-21T17:50:04.027Z,6.47
2018-01-21T17:52:32.344Z,8.83
2018-01-21T17:55:02.130Z,7.20
2018-01-21T17:57:30.393Z,7.57
2018-01-21T17:59:58.642Z,8.63
2018-01-21T18:02:26.893Z,8.23
2018-01-21T18:04:55.535Z,12.10
2018-01-21T18:07:23.773Z,11.00
2018-01-21T18:09:52.005Z,10.87
2018-01-21T18:12:21.216Z,9.30
2018-01-21T18:14:49.407Z,6.80
2018-01-21T18:17:18.456Z,10.03
2018-01-21T18:19:47.683Z,9.13
2018-01-21T18:22:16.155Z,9.57
2018-01-21T18:24:44.385Z,10.60
2018-01-21T18:27:12.677Z,10.10
2018-01-21T18:29:41.199Z,10.07
2018-01-21T18:32:09.432Z,9.63
2018-01-21T18:34:37.738Z,16.10
2018-01-21T18:37:06.335Z,9.40
2018-01-21T18:39:34.583Z,7.70
2018-01-21T18:42:04.973Z,7.87
2018-01-21T18:44:33.252Z,8.03
2018-01-21T18:47:01.497Z,10.43
2018-01-21T18:49:29.736Z,10.47
2018-01-21T18:51:58.023Z,9.77
2018-01-21T18:54:26.280Z,11.37
2018-01-21T18:56:54.516Z,12.37
2018-01-21T18:59:22.761Z,16.13
2018-01-21T19:01:51.897Z,13.87
2018-01-21T19:04:21.454Z,11.53
2018-01-21T19:06:50.134Z,10.33
2018-01-21T19:09:18.422Z,12.50
2018-01-21T19:11:46.837Z,10.40
2018-01-21T19:14:15.130Z,11.40
2018-01-21T19:16:44.713Z,11.30
2018-01-21T19:19:12.990Z,12.97
2018-01-21T19:21:42.014Z,12.43
2018-01-21T19:24:10.828Z,12.50
2018-01-21T19:26:39.105Z,10.37
2018-01-21T19:29:07.391Z,9.97
2018-01-21T19:31:35.628Z,11.53
2018-01-21T19:34:03.900Z,11.37
2018-01-21T19:36:32.175Z,16.23
2018-01-21T19:39:03.032Z,8.73
2018-01-21T19:41:42.144Z,10.43
2018-01-21T19:47:05.966Z,12.20
2018-01-21T19:49:34.261Z,9.97
2018-01-21T19:52:03.083Z,10.37
2018-01-21T19:54:31.344Z,11.53
2018-01-21T19:57:00.364Z,8.57
2018-01-21T19:59:29.389Z,11.57
2018-01-21T20:01:57.634Z,10.53
2018-01-21T20:04:25.881Z,9.53
2018-01-21T20:06:54.898Z,7.60
2018-01-21T20:09:23.893Z,8.70
2018-01-21T20:11:52.145Z,10.77
2018-01-21T20:14:20.444Z,8.87
2018-01-21T20:16:48.709Z,9.40
2018-01-21T20:19:16.971Z,11.53
2018-01-21T20:21:45.961Z,9.07
2018-01-21T20:24:14.238Z,9.83
2018-01-21T20:26:42.507Z,7.00
2018-01-21T20:29:10.893Z,8.40
2018-01-21T20:31:39.133Z,7.13
2018-01-21T20:34:07.407Z,6.87
2018-01-21T20:36:35.939Z,9.37
2018-01-21T20:39:04.144Z,6.13
2018-01-21T20:41:32.451Z,5.03
2018-01-21T20:44:01.113Z,6.40
2018-01-21T20:46:30.106Z,5.53
2018-01-21T20:48:58.364Z,8.40
2018-01-21T20:51:32.497Z,7.83
2018-01-21T20:54:06.321Z,5.73
2018-01-21T20:56:34.650Z,7.90
2018-01-21T20:59:02.879Z,9.43
2018-01-21T21:01:31.194Z,6.47
2018-01-21T21:03:59.426Z,4.63
2018-01-21T21:06:27.661Z,4.43
2018-01-21T21:08:55.931Z,4.10
2018-01-21T21:11:24.934Z,6.30
2018-01-21T21:13:53.165Z,4.83
2018-01-21T21:16:21.467Z,5.03
2018-01-21T21:18:49.737Z,9.80
2018-01-21T21:21:22.178Z,5.20
2018-01-21T21:23:50.413Z,4.23
2018-01-21T21:26:18.676Z,9.70
2018-01-21T21:28:47.709Z,4.53
2018-01-21T21:31:15.997Z,4.07
2018-01-21T21:33:44.225Z,4.40
2018-01-21T21:36:12.477Z,6.90
2018-01-21T21:38:40.772Z,5.17
2018-01-21T21:41:09.022Z,4.63
2018-01-21T21:43:38.082Z,4.30
2018-01-21T21:46:06.333Z,4.60
2018-01-21T21:48:34.593Z,8.67
2018-01-21T21:51:03.008Z,5.57
2018-01-21T21:53:32.840Z,5.67
2018-01-21T21:56:01.060Z,4.87
2018-01-21T21:58:29.305Z,4.90
2018-01-21T22:00:57.541Z,4.53
2018-01-21T22:03:25.785Z,4.40
2018-01-21T22:05:54.830Z,4.10
2018-01-21T22:08:23.119Z,3.80
2018-01-21T22:10:51.316Z,3.93
2018-01-21T22:13:19.588Z,5.73
2018-01-21T22:15:47.833Z,4.70
2018-01-21T22:18:16.093Z,5.00
2018-01-21T22:20:44.324Z,5.43
2018-01-21T22:23:12.586Z,3.03
2018-01-21T22:25:40.808Z,4.27
2018-01-21T22:28:09.064Z,6.30
2018-01-21T22:30:37.308Z,4.17
2018-01-21T22:33:05.560Z,4.03
2018-01-21T22:35:33.840Z,6.93
2018-01-21T22:38:02.358Z,8.40
2018-01-21T22:40:30.565Z,3.77
2018-01-21T22:42:59.572Z,4.27
2018-01-21T22:45:27.804Z,5.10
2018-01-21T22:47:57.632Z,5.87
2018-01-21T22:50:26.679Z,4.03
2018-01-21T22:52:55.678Z,4.67
2018-01-21T22:55:23.918Z,4.97
2018-01-21T22:57:52.383Z,5.40
2018-01-21T23:00:20.599Z,4.60
2018-01-21T23:02:48.847Z,6.03
2018-01-21T23:05:17.100Z,5.30
2018-01-21T23:07:46.281Z,5.90
2018-01-21T23:10:14.474Z,5.13
2018-01-21T23:12:43.502Z,5.30
2018-01-21T23:15:11.827Z,5.17
2018-01-21T23:17:41.230Z,5.60
2018-01-21T23:20:09.466Z,5.00
2018-01-21T23:22:37.783Z,4.60
2018-01-21T23:25:06.024Z,11.83
2018-01-21T23:27:34.279Z,4.67
2018-01-21T23:30:02.572Z,4.30
2018-01-21T23:32:30.854Z,4.40
2018-01-21T23:34:59.449Z,4.70
2018-01-21T23:37:27.792Z,5.40
2018-01-21T23:39:56.229Z,4.13
2018-01-21T23:42:25.295Z,5.43
2018-01-21T23:44:53.757Z,7.87
2018-01-21T23:47:22.182Z,4.03
2018-01-21T23:49:51.141Z,4.57
2018-01-21T23:52:20.358Z,4.00
2018-01-21T23:54:48.611Z,7.33
2018-01-21T23:57:16.850Z,9.40
2018-01-21T23:59:45.254Z,6.23
